Latest Weather Observations for Yampi Sound (Defence)

IDW60801

Issued at 10:53 pm WST Friday 23 April 2021 (issued every 10 minutes, with the page automatically refreshed every 10 minutes)

About weather observations | Map of weather stations | Latest weather observations for WA | Other Formats
Station Details ID: 003108 Name: YAMPI SOUND (DEFENCE) Lat: -16.77 Lon: 123.98 Height: 41.33 m
Data from the previous 72 hours. | See also: Recent months at Yampi Sound (Defence)
Date/Time
WST
Temp
°C
App
Temp
°C
Dew
Point
°C
Rel
Hum
%
Delta-T
°C
Wind Press
QNH
hPa
Press
MSL
hPa
Rain since
9am
mm
Dir  Spd
km/h
Gust
km/h
Spd
kts
Gust
kts
23/10:30pm 22.0 24.8 18.8 82 2.0 SW 2 6 1 3 1016.5 - -
23/10:00pm 21.7 24.7 18.5 82 2.0 CALM 0 4 0 2 1016.5 - -
23/09:30pm 22.3 24.4 18.1 77 2.6 SSW 4 4 2 2 1016.5 - -
23/09:00pm 23.6 25.9 17.8 70 3.6 NNE 2 6 1 3 1016.5 - -
23/08:30pm 25.6 27.7 17.3 60 5.2 SSW 2 6 1 3 1016.4 - -
23/08:00pm 25.0 27.1 18.2 66 4.3 SW 4 7 2 4 1015.9 - -
23/07:30pm 25.1 26.6 17.6 63 4.7 SW 6 9 3 5 1015.5 - -
23/07:00pm 24.3 26.5 19.1 73 3.3 SW 6 9 3 5 1015.0 - -
23/06:30pm 24.9 27.9 19.3 71 3.6 SW 2 4 1 2 1014.6 - -
23/06:00pm 26.2 29.6 19.3 65 4.4 CALM 0 0 0 0 1014.2 - -
23/05:30pm 28.3 31.6 19.2 57 5.9 CALM 0 0 0 0 1014.0 - -
23/05:00pm 32.3 35.8 19.5 46 8.4 CALM 0 0 0 0 1013.7 - -
23/04:30pm 35.5 36.5 13.1 26 13.6 CALM 0 4 0 2 1013.4 - -
23/04:00pm 36.3 34.6 7.4 17 16.2 SSW 6 7 3 4 1013.1 - -
23/03:30pm 36.5 35.2 7.5 17 16.3 SE 4 7 2 4 1012.9 - -
23/03:00pm 35.8 33.8 6.1 16 16.3 SE 6 9 3 5 1012.8 - -
23/02:30pm 37.0 35.0 6.1 15 17.0 ESE 6 11 3 6 1012.9 - -
23/02:00pm 36.8 34.5 5.9 15 16.9 NE 7 15 4 8 1013.1 - -
23/01:30pm 36.8 34.5 5.9 15 16.9 E 7 19 4 10 1013.4 - -
23/01:00pm 36.5 34.4 6.6 16 16.5 E 7 19 4 10 1013.6 - -
23/12:30pm 36.6 34.3 7.6 17 16.3 NE 9 17 5 9 1014.1 - -
23/12:00pm 36.1 34.3 8.0 18 15.9 ENE 7 17 4 9 1014.6 - -
23/11:30am 36.5 34.3 9.2 19 15.7 ENE 11 17 6 9 1015.1 - -
23/11:00am 35.0 32.4 9.4 21 14.7 NE 13 19 7 10 1015.6 - -
23/10:30am 34.4 32.4 10.3 23 14.0 ENE 11 20 6 11 1016.1 - -
23/10:00am 33.0 32.1 11.5 27 12.6 NE 7 13 4 7 1016.4 - -
23/09:30am 32.0 31.1 11.2 28 12.1 ENE 7 13 4 7 1016.6 - -
23/09:00am 30.0 29.3 11.5 32 10.7 ENE 6 9 3 5 1016.5 - -
23/08:30am 27.7 27.1 11.7 37 9.2 E 6 7 3 4 1016.3 - -
23/08:00am 26.1 25.8 11.5 40 8.3 ENE 4 7 2 4 1016.3 - -
23/07:30am 23.6 23.6 12.3 49 6.4 NNE 4 7 2 4 1016.2 - -
23/07:29am 23.6 23.8 12.9 51 6.2 NNE 4 7 2 4 1016.2 - -
23/07:00am 18.6 20.8 16.6 88 1.2 CALM 0 4 0 2 1015.9 - -
23/06:30am 16.3 18.1 15.5 95 0.5 CALM 0 0 0 0 1015.8 - -
23/06:00am 15.2 16.2 14.2 94 0.6 NNW 2 4 1 2 1015.3 - -
23/05:30am 15.2 16.4 13.9 92 0.7 CALM 0 4 0 2 1014.8 - -
23/05:00am 15.5 16.4 14.0 91 0.8 NNW 2 6 1 3 1014.6 - -
23/04:30am 15.7 16.7 14.2 91 0.9 SSW 2 7 1 4 1014.2 - -
23/04:00am 16.1 17.3 15.0 93 0.6 SW 2 6 1 3 1014.2 - -
23/03:30am 15.8 16.4 14.2 90 0.9 SW 4 6 2 3 1014.1 - -
23/03:00am 15.9 16.6 14.6 92 0.7 SW 4 6 2 3 1014.1 - -
23/02:30am 15.8 17.0 14.8 94 0.6 SW 2 7 1 4 1014.2 - -
23/02:00am 16.0 17.6 14.9 93 0.6 CALM 0 0 0 0 1014.5 - -
23/01:30am 16.2 17.8 14.9 92 0.7 CALM 0 0 0 0 1014.6 - -
23/01:00am 16.4 18.0 14.9 91 0.9 CALM 0 0 0 0 1014.8 - -
23/12:30am 16.8 18.4 15.0 89 1.0 CALM 0 0 0 0 1015.1 - -
23/12:00am 17.3 18.9 14.9 86 1.4 CALM 0 0 0 0 1015.5 - -
 
Date/Time
WST
Temp
°C
App
Temp
°C
Dew
Point
°C
Rel
Hum
%
Delta-T
°C
Wind Press
QNH
hPa
Press
MSL
hPa
Rain since
9am
mm
Dir  Spd
km/h
Gust
km/h
Spd
kts
Gust
kts
22/11:30pm 17.7 19.4 15.1 85 1.5 CALM 0 0 0 0 1015.6 - -
22/11:00pm 17.8 19.1 15.1 84 1.6 NNE 2 6 1 3 1015.8 - -
22/10:30pm 18.4 20.3 15.8 85 1.5 CALM 0 4 0 2 1015.8 - -
22/10:00pm 19.1 20.8 16.3 84 1.7 S 2 4 1 2 1015.7 - -
22/09:30pm 19.4 21.2 16.4 83 1.8 SSW 2 6 1 3 1015.7 - -
22/09:00pm 20.1 22.2 17.1 83 1.8 SW 2 6 1 3 1015.7 - -
22/08:30pm 20.6 22.2 17.0 80 2.2 SW 4 6 2 3 1015.7 - -
22/08:00pm 21.1 23.1 17.9 82 2.0 SW 4 6 2 3 1015.5 - -
22/07:30pm 21.7 23.9 18.3 81 2.1 SW 4 6 2 3 1015.2 - -
22/07:00pm 22.2 24.0 17.3 74 3.0 SSW 4 6 2 3 1014.7 - -
22/06:30pm 23.3 25.2 16.8 67 4.0 S 2 4 1 2 1014.4 - -
22/06:00pm 24.7 26.4 16.2 59 5.2 SSE 2 4 1 2 1013.9 - -
22/05:30pm 27.1 29.4 16.7 53 6.5 CALM 0 0 0 0 1013.6 - -
22/05:00pm 31.8 32.8 15.3 37 10.2 SSE 4 4 2 2 1013.5 - -
22/04:30pm 33.6 32.1 8.3 21 14.2 SSE 6 9 3 5 1013.1 - -
22/04:00pm 34.4 32.7 8.2 20 14.7 SSE 7 13 4 7 1012.9 - -
22/03:30pm 35.0 32.4 6.3 17 15.7 SE 9 15 5 8 1012.7 - -
22/03:00pm 35.1 32.4 5.5 16 16.0 SE 9 17 5 9 1012.7 - -
22/02:30pm 35.5 32.6 6.7 17 15.9 SE 11 17 6 9 1012.9 - -
22/02:00pm 35.5 32.3 4.9 15 16.4 SE 11 17 6 9 1013.2 - -
22/01:30pm 35.3 32.2 5.7 16 16.1 SE 11 19 6 10 1013.4 - -
22/01:00pm 35.3 32.6 7.4 18 15.5 SE 11 19 6 10 1013.8 - -
22/12:30pm 35.0 32.1 6.3 17 15.7 SE 11 17 6 9 1014.2 - -
22/12:00pm 34.7 31.9 6.9 18 15.3 SE 11 17 6 9 1014.5 - -
22/11:30am 34.0 31.2 7.1 19 14.8 ESE 11 19 6 10 1015.0 - -
22/11:00am 33.5 29.7 5.9 18 14.9 ESE 15 24 8 13 1015.5 - -
22/10:30am 32.9 29.6 6.2 19 14.4 E 13 22 7 12 1016.1 - -
22/10:00am 31.4 29.7 8.4 24 12.8 SSE 7 15 4 8 1016.6 - -
22/09:30am 29.9 28.8 10.5 30 11.1 ESE 7 13 4 7 1016.9 - -
22/09:00am 28.3 28.1 10.5 33 10.1 ESE 2 6 1 3 1017.0 - -
22/08:30am 25.8 25.6 10.4 38 8.6 SSE 2 6 1 3 1017.1 - -
22/08:00am 23.8 22.7 10.1 42 7.5 S 6 7 3 4 1017.0 - -
22/07:30am 22.4 21.4 10.2 46 6.7 S 6 9 3 5 1017.0 - -
22/07:00am 21.2 20.3 10.7 51 5.7 SSW 6 6 3 3 1016.8 - -
22/06:30am 17.7 17.4 12.8 73 2.7 S 6 9 3 5 1016.6 - -
22/06:00am 16.3 16.7 13.8 85 1.4 SSW 4 7 2 4 1016.3 - -
22/05:30am 16.8 17.3 13.9 83 1.6 SSW 4 6 2 3 1015.9 - -
22/05:00am 18.7 18.7 12.5 67 3.5 SSW 4 7 2 4 1015.5 - -
22/04:30am 19.1 18.8 12.6 66 3.6 SSW 6 9 3 5 1015.3 - -
22/04:00am 19.8 19.2 11.8 60 4.4 SSW 6 9 3 5 1015.1 - -
22/03:30am 19.9 19.3 12.2 61 4.3 SW 7 11 4 6 1015.1 - -
22/03:00am 18.5 18.9 14.8 79 2.2 S 6 7 3 4 1015.0 - -
22/02:30am 19.1 19.8 15.6 80 2.1 S 6 7 3 4 1015.1 - -
22/02:00am 18.4 19.1 15.6 84 1.7 SSW 6 7 3 4 1015.1 - -
22/01:30am 18.2 20.1 15.8 86 1.4 CALM 0 6 0 3 1015.2 - -
22/01:00am 17.9 19.8 15.7 87 1.3 CALM 0 0 0 0 1015.3 - -
22/12:30am 18.1 20.3 16.6 91 0.9 CALM 0 0 0 0 1015.5 - -
22/12:00am 18.2 20.5 16.7 91 0.9 CALM 0 0 0 0 1015.8 - -
 
Date/Time
WST
Temp
°C
App
Temp
°C
Dew
Point
°C
Rel
Hum
%
Delta-T
°C
Wind Press
QNH
hPa
Press
MSL
hPa
Rain since
9am
mm
Dir  Spd
km/h
Gust
km/h
Spd
kts
Gust
kts
21/11:30pm 18.4 20.7 16.7 90 1.0 CALM 0 0 0 0 1016.1 - -
21/11:00pm 18.4 20.4 16.0 86 1.4 CALM 0 0 0 0 1016.1 - -
21/10:30pm 18.9 20.9 16.1 84 1.7 CALM 0 0 0 0 1016.1 - -
21/10:00pm 19.6 22.0 17.0 85 1.6 CALM 0 0 0 0 1016.3 - -
21/09:30pm 20.3 22.3 16.1 77 2.5 CALM 0 0 0 0 1016.4 - -
21/09:00pm 21.0 23.7 17.8 82 2.0 CALM 0 0 0 0 1016.4 - -
21/08:30pm 21.7 23.6 17.7 78 2.5 SSW 4 6 2 3 1016.4 - -
21/08:00pm 22.3 24.6 18.5 79 2.4 SSW 4 6 2 3 1016.2 - -
21/07:30pm 23.3 25.2 17.7 71 3.5 SW 4 6 2 3 1015.8 - -
21/07:00pm 24.6 26.1 16.6 61 4.9 SW 4 9 2 5 1015.4 - -
21/06:30pm 25.8 27.3 16.6 56 5.7 S 4 6 2 3 1014.9 - -
21/06:00pm 27.6 28.3 16.2 49 7.0 SW 7 9 4 5 1014.5 - -
21/05:30pm 29.0 30.4 15.5 44 8.3 S 2 4 1 2 1014.3 - -
21/05:00pm 31.9 32.9 15.4 37 10.2 S 4 6 2 3 1013.9 - -
21/04:30pm 34.0 32.7 9.3 22 14.1 SSE 6 9 3 5 1013.7 - -
21/04:00pm 34.6 32.7 9.1 21 14.5 SSE 9 13 5 7 1013.5 - -
21/03:30pm 35.0 32.6 8.7 20 14.9 SSE 11 19 6 10 1013.5 - -
21/03:00pm 35.6 33.5 8.4 19 15.4 SSE 9 15 5 8 1013.5 - -
21/02:30pm 35.2 32.9 8.9 20 15.0 ESE 11 17 6 9 1013.7 - -
21/02:00pm 35.3 33.6 9.7 21 14.8 SE 9 20 5 11 1013.9 - -
21/01:30pm 35.2 33.4 9.6 21 14.7 ESE 9 15 5 8 1014.1 - -
21/01:00pm 34.9 32.7 9.3 21 14.7 SE 11 17 6 9 1014.5 - -
21/12:30pm 34.6 31.9 9.1 21 14.5 SSE 13 17 7 9 1014.9 - -
21/12:00pm 34.4 33.0 9.6 22 14.2 SE 7 17 4 9 1015.3 - -
21/11:30am 34.2 33.1 10.7 24 13.7 SSE 7 13 4 7 1015.8 - -
21/11:00am 33.0 32.5 10.9 26 12.8 SSE 4 9 2 5 1016.4 - -
21/10:30am 32.5 31.9 12.2 29 12.0 E 7 11 4 6 1016.9 - -
21/10:00am 30.9 30.2 11.3 30 11.4 ESE 6 9 3 5 1017.2 - -
21/09:30am 29.8 29.9 12.7 35 10.1 SSE 4 9 2 5 1017.2 - -
21/09:00am 29.3 29.4 12.7 36 9.8 ESE 4 7 2 4 1017.3 - -
21/08:30am 27.8 29.0 14.8 45 7.9 ENE 2 6 1 3 1017.2 - -
21/08:00am 25.1 28.0 18.1 65 4.4 CALM 0 0 0 0 1017.0 - -
21/07:30am 22.9 25.4 18.2 75 2.9 NNE 2 4 1 2 1016.9 - -
21/07:00am 20.5 22.6 18.1 86 1.5 NE 4 6 2 3 1016.9 - -
21/06:30am 18.2 20.1 17.6 96 0.4 N 4 7 2 4 1016.5 - -
21/06:00am 17.7 19.2 16.7 94 0.6 SSE 4 4 2 2 1015.9 - -
21/05:30am 18.4 21.0 17.6 95 0.5 CALM 0 0 0 0 1015.9 - -
21/05:00am 18.4 20.3 17.6 95 0.5 S 4 6 2 3 1015.8 - -
21/04:30am 17.6 19.9 16.8 95 0.5 CALM 0 4 0 2 1015.3 - -
21/04:00am 18.1 20.5 17.1 94 0.6 CALM 0 0 0 0 1015.0 - -
21/03:30am 18.4 21.0 17.4 94 0.6 CALM 0 0 0 0 1014.9 - -
21/03:00am 18.4 21.0 17.4 94 0.6 CALM 0 0 0 0 1014.9 - -
21/02:30am 18.9 21.5 17.6 92 0.8 CALM 0 0 0 0 1014.9 - -
21/02:00am 19.4 22.2 17.9 91 0.9 CALM 0 0 0 0 1015.0 - -
21/01:30am 19.3 22.2 18.3 94 0.6 CALM 0 0 0 0 1015.0 - -
21/01:00am 18.5 21.2 17.7 95 0.5 CALM 0 0 0 0 1015.2 - -
21/12:30am 18.7 21.1 17.0 90 1.0 CALM 0 0 0 0 1015.5 - -
21/12:00am 19.1 21.8 17.8 92 0.8 CALM 0 0 0 0 1015.7 - -
 
Date/Time
WST
Temp
°C
App
Temp
°C
Dew
Point
°C
Rel
Hum
%
Delta-T
°C
Wind Press
QNH
hPa
Press
MSL
hPa
Rain since
9am
mm
Dir  Spd
km/h
Gust
km/h
Spd
kts
Gust
kts
20/11:30pm 18.6 21.2 17.4 93 0.7 CALM 0 4 0 2 1015.9 - -
20/11:00pm 18.5 21.0 17.2 92 0.8 CALM 0 0 0 0 1015.8 - -

Other formats

Comma delimited format used in spreadsheet applications
http://www.bom.gov.au/fwo/IDW60801/IDW60801.95208.axf

JavaScript Object Notation format (JSON) in row-major order
http://www.bom.gov.au/fwo/IDW60801/IDW60801.95208.json

Data quality

Most of these data are generated automatically and are frequently updated. Quality checks on data are not normally performed. It is possible for incorrect values to appear. Refer to information at About Latest Weather Observations and please check the disclaimer before using these data.